sensor_id;sensor_type;location;lat;lon;timestamp;pressure;altitude;pressure_sealevel;temperature;humidity
38780;BME280;29273;49.962;9.768;2023-03-16T00:02:00;100361.03;;;5.09;61.22
38780;BME280;29273;49.962;9.768;2023-03-16T00:04:25;100364.81;;;5.07;61.12
38780;BME280;29273;49.962;9.768;2023-03-16T00:06:51;100363.66;;;5.09;61.07
38780;BME280;29273;49.962;9.768;2023-03-16T00:09:16;100368.09;;;5.09;61.03
38780;BME280;29273;49.962;9.768;2023-03-16T00:11:42;100364.81;;;5.07;61.01
38780;BME280;29273;49.962;9.768;2023-03-16T00:14:07;100363.97;;;5.06;60.91
38780;BME280;29273;49.962;9.768;2023-03-16T00:16:33;100351.00;;;5.05;60.82
38780;BME280;29273;49.962;9.768;2023-03-16T00:19:00;100352.66;;;5.06;60.67
38780;BME280;29273;49.962;9.768;2023-03-16T00:21:28;100353.63;;;5.05;60.91
38780;BME280;29273;49.962;9.768;2023-03-16T00:23:57;100351.00;;;5.05;60.87
38780;BME280;29273;49.962;9.768;2023-03-16T00:26:23;100359.03;;;5.03;61.04
38780;BME280;29273;49.962;9.768;2023-03-16T00:28:50;100366.75;;;5.05;61.07
38780;BME280;29273;49.962;9.768;2023-03-16T00:31:19;100371.31;;;5.03;60.93
38780;BME280;29273;49.962;9.768;2023-03-16T00:33:44;100367.72;;;5.04;60.75
38780;BME280;29273;49.962;9.768;2023-03-16T00:36:10;100359.03;;;5.03;60.55
38780;BME280;29273;49.962;9.768;2023-03-16T00:38:39;100359.56;;;5.07;60.96
38780;BME280;29273;49.962;9.768;2023-03-16T00:41:10;100353.09;;;5.01;60.77
38780;BME280;29273;49.962;9.768;2023-03-16T00:43:40;100353.09;;;5.01;60.89
38780;BME280;29273;49.962;9.768;2023-03-16T00:46:08;100347.03;;;5.00;61.02
38780;BME280;29273;49.962;9.768;2023-03-16T00:48:35;100353.25;;;4.99;60.95
38780;BME280;29273;49.962;9.768;2023-03-16T00:51:02;100350.78;;;4.98;61.15
38780;BME280;29273;49.962;9.768;2023-03-16T00:53:31;100351.31;;;5.02;61.47
38780;BME280;29273;49.962;9.768;2023-03-16T00:55:57;100353.25;;;4.99;61.35
38780;BME280;29273;49.962;9.768;2023-03-16T00:58:23;100358.50;;;4.99;61.36
38780;BME280;29273;49.962;9.768;2023-03-16T01:00:50;100361.81;;;5.02;61.52
38780;BME280;29273;49.962;9.768;2023-03-16T01:03:18;100361.81;;;5.02;61.20
38780;BME280;29273;49.962;9.768;2023-03-16T01:05:43;100367.88;;;5.02;61.01
38780;BME280;29273;49.962;9.768;2023-03-16T01:08:10;100360.81;;;5.03;61.29
38780;BME280;29273;49.962;9.768;2023-03-16T01:10:35;100368.53;;;5.04;61.55
38780;BME280;29273;49.962;9.768;2023-03-16T01:13:01;100373.78;;;5.04;61.48
38780;BME280;29273;49.962;9.768;2023-03-16T01:15:30;100365.47;;;5.09;61.76
38780;BME280;29273;49.962;9.768;2023-03-16T01:17:55;100364.13;;;5.05;61.31
38780;BME280;29273;49.962;9.768;2023-03-16T01:20:21;100365.78;;;5.06;61.45
38780;BME280;29273;49.962;9.768;2023-03-16T01:22:48;100372.69;;;5.07;61.33
38780;BME280;29273;49.962;9.768;2023-03-16T01:25:14;100371.69;;;5.08;61.60
38780;BME280;29273;49.962;9.768;2023-03-16T01:27:40;100367.13;;;5.10;61.65
38780;BME280;29273;49.962;9.768;2023-03-16T01:30:08;100368.63;;;5.12;61.19
38780;BME280;29273;49.962;9.768;2023-03-16T01:32:37;100367.94;;;5.10;61.15
38780;BME280;29273;49.962;9.768;2023-03-16T01:35:05;100373.19;;;5.10;60.86
38780;BME280;29273;49.962;9.768;2023-03-16T01:37:31;100375.16;;;5.08;60.79
38780;BME280;29273;49.962;9.768;2023-03-16T01:40:11;100371.84;;;5.06;60.76
38780;BME280;29273;49.962;9.768;2023-03-16T01:42:59;100368.91;;;5.09;61.11
38780;BME280;29273;49.962;9.768;2023-03-16T01:46:20;100365.91;;;5.04;61.55
38780;BME280;29273;49.962;9.768;2023-03-16T01:48:55;100363.44;;;5.03;61.40
38780;BME280;29273;49.962;9.768;2023-03-16T01:51:30;100363.59;;;5.01;60.96
38780;BME280;29273;49.962;9.768;2023-03-16T01:54:01;100362.13;;;4.98;61.20
38780;BME280;29273;49.962;9.768;2023-03-16T01:56:34;100359.78;;;4.95;61.27
38780;BME280;29273;49.962;9.768;2023-03-16T01:59:06;100351.91;;;4.95;61.28
38780;BME280;29273;49.962;9.768;2023-03-16T02:01:34;100348.25;;;4.88;60.70
38780;BME280;29273;49.962;9.768;2023-03-16T02:04:21;100350.03;;;4.88;61.28
38780;BME280;29273;49.962;9.768;2023-03-16T02:06:48;100343.59;;;4.82;60.67
38780;BME280;29273;49.962;9.768;2023-03-16T02:09:15;100343.59;;;4.82;60.46
38780;BME280;29273;49.962;9.768;2023-03-16T02:11:42;100335.22;;;4.78;60.60
38780;BME280;29273;49.962;9.768;2023-03-16T02:14:11;100323.06;;;4.77;60.31
38780;BME280;29273;49.962;9.768;2023-03-16T02:16:38;100318.78;;;4.76;60.34
38780;BME280;29273;49.962;9.768;2023-03-16T02:19:12;100314.22;;;4.78;60.89
38780;BME280;29273;49.962;9.768;2023-03-16T02:22:00;100308.44;;;4.75;60.83
38780;BME280;29273;49.962;9.768;2023-03-16T02:24:26;100312.63;;;4.68;60.17
38780;BME280;29273;49.962;9.768;2023-03-16T02:26:57;100311.38;;;4.72;60.59
38780;BME280;29273;49.962;9.768;2023-03-16T02:29:57;100301.31;;;4.67;60.79
38780;BME280;29273;49.962;9.768;2023-03-16T02:32:29;100303.88;;;4.59;60.17
38780;BME280;29273;49.962;9.768;2023-03-16T02:34:57;100304.84;;;4.58;60.36
38780;BME280;29273;49.962;9.768;2023-03-16T02:37:23;100304.31;;;4.54;60.04
38780;BME280;29273;49.962;9.768;2023-03-16T02:39:48;100315.94;;;4.52;59.93
38780;BME280;29273;49.962;9.768;2023-03-16T02:42:19;100322.00;;;4.52;60.32
38780;BME280;29273;49.962;9.768;2023-03-16T02:44:52;100317.06;;;4.49;60.06
38780;BME280;29273;49.962;9.768;2023-03-16T02:47:36;100323.59;;;4.45;60.63
38780;BME280;29273;49.962;9.768;2023-03-16T02:50:05;100317.41;;;4.36;59.73
38780;BME280;29273;49.962;9.768;2023-03-16T02:52:35;100315.13;;;4.33;60.03
38780;BME280;29273;49.962;9.768;2023-03-16T02:55:03;100315.56;;;4.29;60.27
38780;BME280;29273;49.962;9.768;2023-03-16T02:57:29;100329.09;;;4.24;60.51
38780;BME280;29273;49.962;9.768;2023-03-16T02:59:59;100331.88;;;4.22;60.43
38780;BME280;29273;49.962;9.768;2023-03-16T03:02:25;100328.56;;;4.20;60.54
38780;BME280;29273;49.962;9.768;2023-03-16T03:04:51;100329.69;;;4.18;60.88
38780;BME280;29273;49.962;9.768;2023-03-16T03:07:20;100327.06;;;4.18;60.87
38780;BME280;29273;49.962;9.768;2023-03-16T03:09:58;100308.19;;;4.14;60.89
38780;BME280;29273;49.962;9.768;2023-03-16T03:12:24;100309.19;;;4.13;61.06
38780;BME280;29273;49.962;9.768;2023-03-16T03:14:49;100314.41;;;4.13;61.27
38780;BME280;29273;49.962;9.768;2023-03-16T03:17:18;100313.44;;;4.14;61.37
38780;BME280;29273;49.962;9.768;2023-03-16T03:19:44;100312.47;;;4.15;61.15
38780;BME280;29273;49.962;9.768;2023-03-16T03:22:09;100313.28;;;4.16;61.19
38780;BME280;29273;49.962;9.768;2023-03-16T03:24:35;100312.31;;;4.17;61.44
38780;BME280;29273;49.962;9.768;2023-03-16T03:27:01;100306.94;;;4.18;61.61
38780;BME280;29273;49.962;9.768;2023-03-16T03:29:33;100302.06;;;4.23;62.06
38780;BME280;29273;49.962;9.768;2023-03-16T03:32:00;100305.66;;;4.22;61.51
38780;BME280;29273;49.962;9.768;2023-03-16T03:34:27;100302.06;;;4.23;61.48
38780;BME280;29273;49.962;9.768;2023-03-16T03:36:53;100299.28;;;4.25;61.71
38780;BME280;29273;49.962;9.768;2023-03-16T03:39:18;100291.28;;;4.26;61.49
38780;BME280;29273;49.962;9.768;2023-03-16T03:41:47;100300.78;;;4.28;61.38
38780;BME280;29273;49.962;9.768;2023-03-16T03:44:13;100303.25;;;4.29;61.47
38780;BME280;29273;49.962;9.768;2023-03-16T03:46:38;100305.72;;;4.31;61.32
38780;BME280;29273;49.962;9.768;2023-03-16T03:49:04;100301.16;;;4.33;61.27
38780;BME280;29273;49.962;9.768;2023-03-16T03:51:33;100299.25;;;4.35;61.24
38780;BME280;29273;49.962;9.768;2023-03-16T03:54:05;100293.81;;;4.36;61.04
38780;BME280;29273;49.962;9.768;2023-03-16T03:56:50;100290.38;;;4.36;61.04
38780;BME280;29273;49.962;9.768;2023-03-16T03:59:16;100294.66;;;4.37;61.02
38780;BME280;29273;49.962;9.768;2023-03-16T04:02:01;100281.69;;;4.35;61.04
38780;BME280;29273;49.962;9.768;2023-03-16T04:04:36;100291.38;;;4.35;60.88
38780;BME280;29273;49.962;9.768;2023-03-16T04:07:02;100293.00;;;4.36;60.93
38780;BME280;29273;49.962;9.768;2023-03-16T04:09:29;100287.75;;;4.36;60.79
38780;BME280;29273;49.962;9.768;2023-03-16T04:11:59;100291.19;;;4.36;60.69
38780;BME280;29273;49.962;9.768;2023-03-16T04:14:25;100282.66;;;4.34;60.50
38780;BME280;29273;49.962;9.768;2023-03-16T04:16:51;100284.47;;;4.34;60.59
38780;BME280;29273;49.962;9.768;2023-03-16T04:19:16;100292.34;;;4.34;60.81
38780;BME280;29273;49.962;9.768;2023-03-16T04:21:42;100295.09;;;4.32;60.89
38780;BME280;29273;49.962;9.768;2023-03-16T04:24:08;100300.19;;;4.34;60.96
38780;BME280;29273;49.962;9.768;2023-03-16T04:26:35;100299.53;;;4.32;60.95
38780;BME280;29273;49.962;9.768;2023-03-16T04:29:02;100297.72;;;4.32;60.92
38780;BME280;29273;49.962;9.768;2023-03-16T04:31:29;100297.88;;;4.31;60.99
38780;BME280;29273;49.962;9.768;2023-03-16T04:33:55;100301.16;;;4.33;60.67
38780;BME280;29273;49.962;9.768;2023-03-16T04:36:22;100295.09;;;4.32;60.75
38780;BME280;29273;49.962;9.768;2023-03-16T04:38:51;100289.72;;;4.34;60.64
38780;BME280;29273;49.962;9.768;2023-03-16T04:41:16;100292.47;;;4.32;60.58
38780;BME280;29273;49.962;9.768;2023-03-16T04:43:55;100291.97;;;4.29;60.48
38780;BME280;29273;49.962;9.768;2023-03-16T04:46:26;100292.91;;;4.28;60.56
38780;BME280;29273;49.962;9.768;2023-03-16T04:48:52;100286.19;;;4.25;60.56
38780;BME280;29273;49.962;9.768;2023-03-16T04:51:18;100282.88;;;4.23;60.32
38780;BME280;29273;49.962;9.768;2023-03-16T04:53:56;100277.81;;;4.21;60.50
38780;BME280;29273;49.962;9.768;2023-03-16T04:56:28;100270.59;;;4.05;61.92
38780;BME280;29273;49.962;9.768;2023-03-16T04:58:58;100282.63;;;4.16;60.86
38780;BME280;29273;49.962;9.768;2023-03-16T05:01:28;100282.81;;;4.15;60.42
38780;BME280;29273;49.962;9.768;2023-03-16T05:03:57;100278.69;;;4.12;60.41
38780;BME280;29273;49.962;9.768;2023-03-16T05:06:22;100272.75;;;4.10;60.47
38780;BME280;29273;49.962;9.768;2023-03-16T05:08:48;100266.69;;;4.10;60.48
38780;BME280;29273;49.962;9.768;2023-03-16T05:11:14;100266.16;;;4.06;60.46
38780;BME280;29273;49.962;9.768;2023-03-16T05:13:49;100270.44;;;4.07;60.75
38780;BME280;29273;49.962;9.768;2023-03-16T05:16:15;100272.09;;;4.08;60.89
38780;BME280;29273;49.962;9.768;2023-03-16T05:18:40;100274.72;;;4.08;60.99
38780;BME280;29273;49.962;9.768;2023-03-16T05:21:06;100278.16;;;4.08;60.88
38780;BME280;29273;49.962;9.768;2023-03-16T05:23:46;100275.53;;;4.08;61.29
38780;BME280;29273;49.962;9.768;2023-03-16T05:26:12;100273.72;;;4.09;60.98
38780;BME280;29273;49.962;9.768;2023-03-16T05:28:38;100286.84;;;4.09;61.23
38780;BME280;29273;49.962;9.768;2023-03-16T05:31:08;100285.88;;;4.10;61.41
38780;BME280;29273;49.962;9.768;2023-03-16T05:33:38;100289.16;;;4.12;61.51
38780;BME280;29273;49.962;9.768;2023-03-16T05:36:08;100291.63;;;4.14;61.05
38780;BME280;29273;49.962;9.768;2023-03-16T05:38:35;100289.84;;;4.14;60.95
38780;BME280;29273;49.962;9.768;2023-03-16T05:41:04;100293.44;;;4.13;61.03
38780;BME280;29273;49.962;9.768;2023-03-16T05:43:52;100284.72;;;4.13;61.11
38780;BME280;29273;49.962;9.768;2023-03-16T05:46:19;100289.84;;;4.14;61.42
38780;BME280;29273;49.962;9.768;2023-03-16T05:48:45;100286.41;;;4.14;60.93
38780;BME280;29273;49.962;9.768;2023-03-16T05:51:13;100295.06;;;4.14;61.28
38780;BME280;29273;49.962;9.768;2023-03-16T05:53:39;100290.13;;;4.11;60.90
38780;BME280;29273;49.962;9.768;2023-03-16T05:56:13;100286.53;;;4.12;61.08
38780;BME280;29273;49.962;9.768;2023-03-16T05:58:41;100287.34;;;4.13;60.94
38780;BME280;29273;49.962;9.768;2023-03-16T06:01:08;100290.81;;;4.13;61.26
38780;BME280;29273;49.962;9.768;2023-03-16T06:03:35;100286.53;;;4.12;61.06
38780;BME280;29273;49.962;9.768;2023-03-16T06:06:01;100295.22;;;4.13;61.32
38780;BME280;29273;49.962;9.768;2023-03-16T06:08:31;100289.16;;;4.12;61.42
38780;BME280;29273;49.962;9.768;2023-03-16T06:11:05;100289.16;;;4.12;61.33
38780;BME280;29273;49.962;9.768;2023-03-16T06:13:31;100289.84;;;4.14;61.39
38780;BME280;29273;49.962;9.768;2023-03-16T06:15:56;100282.81;;;4.15;61.45
38780;BME280;29273;49.962;9.768;2023-03-16T06:18:24;100286.25;;;4.15;61.13
38780;BME280;29273;49.962;9.768;2023-03-16T06:20:50;100287.88;;;4.16;61.84
38780;BME280;29273;49.962;9.768;2023-03-16T06:23:16;100292.16;;;4.17;61.72
38780;BME280;29273;49.962;9.768;2023-03-16T06:25:48;100294.06;;;4.25;62.10
38780;BME280;29273;49.962;9.768;2023-03-16T06:28:14;100295.16;;;4.22;61.71
38780;BME280;29273;49.962;9.768;2023-03-16T06:30:40;100292.41;;;4.24;61.83
38780;BME280;29273;49.962;9.768;2023-03-16T06:33:06;100299.28;;;4.25;61.76
38780;BME280;29273;49.962;9.768;2023-03-16T06:35:32;100306.31;;;4.24;61.75
38780;BME280;29273;49.962;9.768;2023-03-16T06:38:09;100306.16;;;4.26;61.79
38780;BME280;29273;49.962;9.768;2023-03-16T06:40:55;100308.66;;;4.28;62.23
38780;BME280;29273;49.962;9.768;2023-03-16T06:43:21;100306.69;;;4.30;61.95
38780;BME280;29273;49.962;9.768;2023-03-16T06:45:48;100311.78;;;4.31;61.88
38780;BME280;29273;49.962;9.768;2023-03-16T06:48:14;100302.00;;;4.33;62.05
38780;BME280;29273;49.962;9.768;2023-03-16T06:50:39;100312.16;;;4.36;62.17
38780;BME280;29273;49.962;9.768;2023-03-16T06:53:05;100312.72;;;4.40;62.08
38780;BME280;29273;49.962;9.768;2023-03-16T06:55:33;100308.97;;;4.42;61.84
38780;BME280;29273;49.962;9.768;2023-03-16T06:57:59;100317.50;;;4.44;61.53
38780;BME280;29273;49.962;9.768;2023-03-16T07:00:25;100313.75;;;4.47;61.91
38780;BME280;29273;49.962;9.768;2023-03-16T07:02:51;100317.06;;;4.49;61.87
38780;BME280;29273;49.962;9.768;2023-03-16T07:05:17;100323.81;;;4.52;61.81
38780;BME280;29273;49.962;9.768;2023-03-16T07:07:44;100326.97;;;4.55;61.59
38780;BME280;29273;49.962;9.768;2023-03-16T07:10:12;100325.53;;;4.61;62.22
38780;BME280;29273;49.962;9.768;2023-03-16T07:12:38;100321.13;;;4.61;61.68
38780;BME280;29273;49.962;9.768;2023-03-16T07:15:04;100324.41;;;4.63;61.67
38780;BME280;29273;49.962;9.768;2023-03-16T07:17:30;100327.56;;;4.67;61.42
38780;BME280;29273;49.962;9.768;2023-03-16T07:19:57;100330.03;;;4.69;61.29
38780;BME280;29273;49.962;9.768;2023-03-16T07:22:22;100320.34;;;4.69;61.37
38780;BME280;29273;49.962;9.768;2023-03-16T07:24:48;100324.50;;;4.72;61.51
38780;BME280;29273;49.962;9.768;2023-03-16T07:27:23;100320.72;;;4.74;61.69
38780;BME280;29273;49.962;9.768;2023-03-16T07:29:50;100317.13;;;4.75;61.34
38780;BME280;29273;49.962;9.768;2023-03-16T07:32:17;100316.84;;;4.78;61.36
38780;BME280;29273;49.962;9.768;2023-03-16T07:34:44;100316.69;;;4.80;61.41
38780;BME280;29273;49.962;9.768;2023-03-16T07:37:10;100313.06;;;4.81;61.41
38780;BME280;29273;49.962;9.768;2023-03-16T07:39:36;100315.25;;;4.86;61.80
38780;BME280;29273;49.962;9.768;2023-03-16T07:42:07;100309.84;;;4.87;61.42
38780;BME280;29273;49.962;9.768;2023-03-16T07:44:51;100313.13;;;4.89;61.25
38780;BME280;29273;49.962;9.768;2023-03-16T07:47:17;100320.72;;;4.92;61.61
38780;BME280;29273;49.962;9.768;2023-03-16T07:49:43;100318.09;;;4.92;60.88
38780;BME280;29273;49.962;9.768;2023-03-16T07:52:10;100323.19;;;4.94;61.25
38780;BME280;29273;49.962;9.768;2023-03-16T07:54:39;100319.75;;;4.93;61.64
38780;BME280;29273;49.962;9.768;2023-03-16T07:57:06;100325.50;;;4.97;61.74
38780;BME280;29273;49.962;9.768;2023-03-16T07:59:37;100321.91;;;4.98;61.96
38780;BME280;29273;49.962;9.768;2023-03-16T08:02:03;100317.19;;;5.02;62.00
38780;BME280;29273;49.962;9.768;2023-03-16T08:04:29;100320.31;;;5.05;61.41
38780;BME280;29273;49.962;9.768;2023-03-16T08:06:57;100324.56;;;5.06;61.66
38780;BME280;29273;49.962;9.768;2023-03-16T08:09:27;100328.72;;;5.09;61.58
38780;BME280;29273;49.962;9.768;2023-03-16T08:11:53;100318.88;;;5.11;61.82
38780;BME280;29273;49.962;9.768;2023-03-16T08:14:19;100319.53;;;5.13;62.23
38780;BME280;29273;49.962;9.768;2023-03-16T08:17:03;100318.94;;;5.19;62.40
38780;BME280;29273;49.962;9.768;2023-03-16T08:19:29;100313.06;;;5.25;62.46
38780;BME280;29273;49.962;9.768;2023-03-16T08:21:57;100321.31;;;5.30;62.37
38780;BME280;29273;49.962;9.768;2023-03-16T08:24:27;100324.16;;;5.37;62.82
38780;BME280;29273;49.962;9.768;2023-03-16T08:26:54;100325.47;;;5.41;62.35
38780;BME280;29273;49.962;9.768;2023-03-16T08:29:20;100326.66;;;5.47;61.93
38780;BME280;29273;49.962;9.768;2023-03-16T08:31:48;100319.97;;;5.52;62.32
38780;BME280;29273;49.962;9.768;2023-03-16T08:34:24;100331.66;;;5.58;62.01
38780;BME280;29273;49.962;9.768;2023-03-16T08:36:49;100318.03;;;5.63;61.54
38780;BME280;29273;49.962;9.768;2023-03-16T08:39:15;100313.31;;;5.66;61.99
38780;BME280;29273;49.962;9.768;2023-03-16T08:41:44;100318.06;;;5.71;61.46
38780;BME280;29273;49.962;9.768;2023-03-16T08:44:22;100311.53;;;5.75;61.96
38780;BME280;29273;49.962;9.768;2023-03-16T08:46:49;100313.69;;;5.80;62.27
38780;BME280;29273;49.962;9.768;2023-03-16T08:49:16;100308.78;;;5.85;62.69
38780;BME280;29273;49.962;9.768;2023-03-16T08:51:46;100309.63;;;5.93;62.72
38780;BME280;29273;49.962;9.768;2023-03-16T08:54:12;100306.41;;;6.00;62.56
38780;BME280;29273;49.962;9.768;2023-03-16T08:56:37;100306.59;;;6.06;62.90
38780;BME280;29273;49.962;9.768;2023-03-16T08:59:03;100302.34;;;6.14;62.94
38780;BME280;29273;49.962;9.768;2023-03-16T09:01:28;100302.66;;;6.19;62.17
38780;BME280;29273;49.962;9.768;2023-03-16T09:03:53;100301.19;;;6.24;61.96
38780;BME280;29273;49.962;9.768;2023-03-16T09:06:19;100306.81;;;6.29;62.21
38780;BME280;29273;49.962;9.768;2023-03-16T09:08:46;100300.25;;;6.34;62.15
38780;BME280;29273;49.962;9.768;2023-03-16T09:11:14;100303.84;;;6.41;62.60
38780;BME280;29273;49.962;9.768;2023-03-16T09:13:41;100296.66;;;6.43;62.05
38780;BME280;29273;49.962;9.768;2023-03-16T09:16:08;100290.88;;;6.47;61.63
38780;BME280;29273;49.962;9.768;2023-03-16T09:18:35;100297.47;;;6.52;61.92
38780;BME280;29273;49.962;9.768;2023-03-16T09:21:03;100287.28;;;6.57;62.03
38780;BME280;29273;49.962;9.768;2023-03-16T09:23:30;100293.84;;;6.61;62.19
38780;BME280;29273;49.962;9.768;2023-03-16T09:25:57;100281.22;;;6.64;61.77
38780;BME280;29273;49.962;9.768;2023-03-16T09:28:24;100277.25;;;6.69;61.99
38780;BME280;29273;49.962;9.768;2023-03-16T09:30:55;100273.28;;;6.73;61.87
38780;BME280;29273;49.962;9.768;2023-03-16T09:33:22;100274.63;;;6.77;61.78
38780;BME280;29273;49.962;9.768;2023-03-16T09:35:49;100273.63;;;6.78;60.64
38780;BME280;29273;49.962;9.768;2023-03-16T09:38:17;100264.25;;;6.83;61.60
38780;BME280;29273;49.962;9.768;2023-03-16T09:40:44;100264.09;;;6.85;61.90
38780;BME280;29273;49.962;9.768;2023-03-16T09:48:24;100261.13;;;6.88;61.99
38780;BME280;29273;49.962;9.768;2023-03-16T09:50:52;100257.97;;;6.93;62.25
38780;BME280;29273;49.962;9.768;2023-03-16T09:53:27;100253.22;;;6.96;63.26
38780;BME280;29273;49.962;9.768;2023-03-16T09:56:02;100249.41;;;6.99;63.24
38780;BME280;29273;49.962;9.768;2023-03-16T09:58:28;100244.47;;;6.96;62.16
38780;BME280;29273;49.962;9.768;2023-03-16T10:06:43;100230.47;;;7.03;62.52
38780;BME280;29273;49.962;9.768;2023-03-16T10:09:53;100230.31;;;7.05;63.65
38780;BME280;29273;49.962;9.768;2023-03-16T10:12:17;100220.59;;;7.06;62.68
38780;BME280;29273;49.962;9.768;2023-03-16T10:14:55;100215.78;;;7.17;64.91
38780;BME280;29273;49.962;9.768;2023-03-16T10:17:29;100220.03;;;7.27;64.62
38780;BME280;29273;49.962;9.768;2023-03-16T10:22:23;100217.56;;;7.33;62.41
38780;BME280;29273;49.962;9.768;2023-03-16T10:27:28;100207.44;;;7.53;64.02
38780;BME280;29273;49.962;9.768;2023-03-16T10:29:54;100213.75;;;7.36;65.62
38780;BME280;29273;49.962;9.768;2023-03-16T10:32:20;100214.81;;;7.58;63.74
38780;BME280;29273;49.962;9.768;2023-03-16T10:35:02;100203.88;;;7.69;64.40
38780;BME280;29273;49.962;9.768;2023-03-16T10:37:31;100206.16;;;7.72;63.59
38780;BME280;29273;49.962;9.768;2023-03-16T10:39:57;100201.38;;;7.76;62.27
38780;BME280;29273;49.962;9.768;2023-03-16T10:42:25;100195.56;;;7.81;62.55
38780;BME280;29273;49.962;9.768;2023-03-16T10:44:58;100201.94;;;7.94;64.24
38780;BME280;29273;49.962;9.768;2023-03-16T10:47:28;100198.59;;;8.01;63.75
38780;BME280;29273;49.962;9.768;2023-03-16T10:49:54;100194.78;;;8.03;62.51
38780;BME280;29273;49.962;9.768;2023-03-16T10:52:34;100189.09;;;8.14;62.83
38780;BME280;29273;49.962;9.768;2023-03-16T10:55:26;100192.22;;;8.18;63.71
38780;BME280;29273;49.962;9.768;2023-03-16T10:57:55;100189.84;;;8.23;62.39
38780;BME280;29273;49.962;9.768;2023-03-16T11:00:25;100191.41;;;8.32;61.96
38780;BME280;29273;49.962;9.768;2023-03-16T11:02:52;100192.09;;;8.34;60.23
38780;BME280;29273;49.962;9.768;2023-03-16T11:05:28;100194.50;;;8.44;62.33
38780;BME280;29273;49.962;9.768;2023-03-16T11:10:53;100179.25;;;8.55;64.06
38780;BME280;29273;49.962;9.768;2023-03-16T11:13:24;100180.50;;;8.59;60.46
38780;BME280;29273;49.962;9.768;2023-03-16T11:18:43;100184.81;;;8.75;61.55
38780;BME280;29273;49.962;9.768;2023-03-16T11:23:58;100170.53;;;8.84;59.82
38780;BME280;29273;49.962;9.768;2023-03-16T11:26:32;100160.06;;;8.91;60.05
38780;BME280;29273;49.962;9.768;2023-03-16T11:29:08;100152.22;;;8.97;60.99
38780;BME280;29273;49.962;9.768;2023-03-16T11:31:42;100149.03;;;9.02;60.23
38780;BME280;29273;49.962;9.768;2023-03-16T11:34:15;100142.84;;;9.10;60.22
38780;BME280;29273;49.962;9.768;2023-03-16T11:45:31;100112.88;;;9.39;63.40
38780;BME280;29273;49.962;9.768;2023-03-16T11:48:23;100112.16;;;9.45;62.30
38780;BME280;29273;49.962;9.768;2023-03-16T11:51:01;100111.22;;;9.53;59.70
38780;BME280;29273;49.962;9.768;2023-03-16T11:53:48;100105.16;;;9.59;60.70
38780;BME280;29273;49.962;9.768;2023-03-16T11:56:33;100116.28;;;9.69;61.52
38780;BME280;29273;49.962;9.768;2023-03-16T12:02:03;100104.06;;;9.90;61.76
38780;BME280;29273;49.962;9.768;2023-03-16T12:04:58;100099.00;;;9.95;60.17
38780;BME280;29273;49.962;9.768;2023-03-16T12:10:47;100090.63;;;10.13;56.63
38780;BME280;29273;49.962;9.768;2023-03-16T12:16:25;100091.91;;;10.24;54.12
38780;BME280;29273;49.962;9.768;2023-03-16T12:18:58;100095.91;;;10.34;54.13
38780;BME280;29273;49.962;9.768;2023-03-16T12:21:42;100086.56;;;10.39;57.48
38780;BME280;29273;49.962;9.768;2023-03-16T12:24:17;100089.44;;;10.44;57.04
38780;BME280;29273;49.962;9.768;2023-03-16T12:26:44;100068.88;;;10.46;55.14
38780;BME280;29273;49.962;9.768;2023-03-16T12:29:30;100067.09;;;10.53;57.50
38780;BME280;29273;49.962;9.768;2023-03-16T12:34:44;100062.47;;;10.62;54.24
38780;BME280;29273;49.962;9.768;2023-03-16T12:40:08;100044.94;;;10.67;54.75
38780;BME280;29273;49.962;9.768;2023-03-16T12:45:43;100040.72;;;10.73;53.86
38780;BME280;29273;49.962;9.768;2023-03-16T12:48:29;100045.25;;;10.79;55.88
38780;BME280;29273;49.962;9.768;2023-03-16T12:50:58;100046.25;;;10.78;52.13
38780;BME280;29273;49.962;9.768;2023-03-16T12:56:17;100041.78;;;10.85;53.44
38780;BME280;29273;49.962;9.768;2023-03-16T12:58:49;100044.25;;;10.93;54.87
38780;BME280;29273;49.962;9.768;2023-03-16T13:01:17;100033.28;;;10.97;56.22
38780;BME280;29273;49.962;9.768;2023-03-16T13:03:49;100036.13;;;11.02;53.18
38780;BME280;29273;49.962;9.768;2023-03-16T13:06:21;100040.25;;;11.11;56.63
38780;BME280;29273;49.962;9.768;2023-03-16T13:08:53;100028.00;;;11.10;51.86
38780;BME280;29273;49.962;9.768;2023-03-16T13:11:21;100024.34;;;11.11;51.38
38780;BME280;29273;49.962;9.768;2023-03-16T13:14:03;100023.75;;;11.22;55.36
38780;BME280;29273;49.962;9.768;2023-03-16T13:16:32;100009.69;;;11.22;52.47
38780;BME280;29273;49.962;9.768;2023-03-16T13:19:15;99998.28;;;11.28;55.36
38780;BME280;29273;49.962;9.768;2023-03-16T13:21:41;100004.41;;;11.28;51.57
38780;BME280;29273;49.962;9.768;2023-03-16T13:26:48;100011.97;;;11.45;52.97
38780;BME280;29273;49.962;9.768;2023-03-16T13:31:46;100007.69;;;11.51;50.25
38780;BME280;29273;49.962;9.768;2023-03-16T13:34:20;100011.78;;;11.66;54.21
38780;BME280;29273;49.962;9.768;2023-03-16T13:36:49;99996.88;;;11.72;51.08
38780;BME280;29273;49.962;9.768;2023-03-16T13:39:21;99993.63;;;11.83;52.51
38780;BME280;29273;49.962;9.768;2023-03-16T13:41:55;99986.28;;;11.92;54.52
38780;BME280;29273;49.962;9.768;2023-03-16T13:44:22;99993.03;;;11.95;51.40
38780;BME280;29273;49.962;9.768;2023-03-16T13:46:49;99987.53;;;11.96;48.93
38780;BME280;29273;49.962;9.768;2023-03-16T13:49:15;99989.75;;;11.99;49.59
38780;BME280;29273;49.962;9.768;2023-03-16T13:51:42;99987.72;;;12.01;48.19
38780;BME280;29273;49.962;9.768;2023-03-16T13:54:24;99978.72;;;12.09;51.99
38780;BME280;29273;49.962;9.768;2023-03-16T13:57:18;99961.34;;;12.07;50.46
38780;BME280;29273;49.962;9.768;2023-03-16T13:59:45;99960.94;;;12.10;48.63
38780;BME280;29273;49.962;9.768;2023-03-16T14:02:19;99961.75;;;12.17;51.58
38780;BME280;29273;49.962;9.768;2023-03-16T14:04:46;99959.50;;;12.14;49.25
38780;BME280;29273;49.962;9.768;2023-03-16T14:07:18;99946.84;;;12.16;47.01
38780;BME280;29273;49.962;9.768;2023-03-16T14:09:44;99952.00;;;11.97;49.85
38780;BME280;29273;49.962;9.768;2023-03-16T14:12:18;99955.81;;;12.21;51.68
38780;BME280;29273;49.962;9.768;2023-03-16T14:14:49;99953.56;;;12.25;51.43